sensor_id;sensor_type;location;lat;lon;timestamp;P1;durP1;ratioP1;P2;durP2;ratioP2
65328;SDS011;51941;52.210;5.158;2024-03-22T00:01:43;26.88;;;10.15;;
65328;SDS011;51941;52.210;5.158;2024-03-22T00:04:09;27.15;;;11.70;;
65328;SDS011;51941;52.210;5.158;2024-03-22T00:06:36;23.17;;;9.85;;
65328;SDS011;51941;52.210;5.158;2024-03-22T00:09:01;25.00;;;8.13;;
65328;SDS011;51941;52.210;5.158;2024-03-22T00:11:28;28.70;;;10.10;;
65328;SDS011;51941;52.210;5.158;2024-03-22T00:13:54;26.63;;;11.25;;
65328;SDS011;51941;52.210;5.158;2024-03-22T00:16:21;26.70;;;9.80;;
65328;SDS011;51941;52.210;5.158;2024-03-22T00:18:48;25.67;;;9.45;;
65328;SDS011;51941;52.210;5.158;2024-03-22T00:21:16;26.60;;;9.30;;
65328;SDS011;51941;52.210;5.158;2024-03-22T00:23:42;26.77;;;11.38;;
65328;SDS011;51941;52.210;5.158;2024-03-22T00:26:09;27.98;;;11.38;;
65328;SDS011;51941;52.210;5.158;2024-03-22T00:28:35;29.30;;;11.32;;
65328;SDS011;51941;52.210;5.158;2024-03-22T00:31:01;24.15;;;8.98;;
65328;SDS011;51941;52.210;5.158;2024-03-22T00:33:27;29.15;;;10.32;;
65328;SDS011;51941;52.210;5.158;2024-03-22T00:35:56;22.42;;;8.65;;
65328;SDS011;51941;52.210;5.158;2024-03-22T00:38:21;24.20;;;9.95;;
65328;SDS011;51941;52.210;5.158;2024-03-22T00:40:48;23.65;;;10.05;;
65328;SDS011;51941;52.210;5.158;2024-03-22T00:43:14;26.95;;;10.90;;
65328;SDS011;51941;52.210;5.158;2024-03-22T00:45:41;27.85;;;10.10;;
65328;SDS011;51941;52.210;5.158;2024-03-22T00:48:07;27.27;;;10.85;;
65328;SDS011;51941;52.210;5.158;2024-03-22T00:50:33;18.95;;;8.40;;
65328;SDS011;51941;52.210;5.158;2024-03-22T00:53:01;26.20;;;10.35;;
65328;SDS011;51941;52.210;5.158;2024-03-22T00:55:30;27.35;;;10.38;;
65328;SDS011;51941;52.210;5.158;2024-03-22T00:57:56;25.40;;;10.68;;
65328;SDS011;51941;52.210;5.158;2024-03-22T01:00:23;25.90;;;9.35;;
65328;SDS011;51941;52.210;5.158;2024-03-22T01:02:49;27.52;;;11.43;;
65328;SDS011;51941;52.210;5.158;2024-03-22T01:05:16;21.75;;;9.10;;
65328;SDS011;51941;52.210;5.158;2024-03-22T01:07:42;25.15;;;8.55;;
65328;SDS011;51941;52.210;5.158;2024-03-22T01:10:11;27.00;;;10.50;;
65328;SDS011;51941;52.210;5.158;2024-03-22T01:12:37;28.75;;;9.55;;
65328;SDS011;51941;52.210;5.158;2024-03-22T01:15:05;28.13;;;10.25;;
65328;SDS011;51941;52.210;5.158;2024-03-22T01:17:31;30.40;;;11.45;;
65328;SDS011;51941;52.210;5.158;2024-03-22T01:19:58;23.75;;;9.30;;
65328;SDS011;51941;52.210;5.158;2024-03-22T01:22:24;28.80;;;10.23;;
65328;SDS011;51941;52.210;5.158;2024-03-22T01:24:50;28.52;;;11.00;;
65328;SDS011;51941;52.210;5.158;2024-03-22T01:27:17;25.08;;;10.55;;
65328;SDS011;51941;52.210;5.158;2024-03-22T01:29:45;25.83;;;10.55;;
65328;SDS011;51941;52.210;5.158;2024-03-22T01:32:12;28.90;;;9.80;;
65328;SDS011;51941;52.210;5.158;2024-03-22T01:34:39;26.90;;;10.70;;
65328;SDS011;51941;52.210;5.158;2024-03-22T01:37:05;25.10;;;9.60;;
65328;SDS011;51941;52.210;5.158;2024-03-22T01:39:32;30.42;;;9.65;;
65328;SDS011;51941;52.210;5.158;2024-03-22T01:41:57;25.55;;;9.88;;
65328;SDS011;51941;52.210;5.158;2024-03-22T01:44:28;29.33;;;11.07;;
65328;SDS011;51941;52.210;5.158;2024-03-22T01:46:54;32.03;;;11.13;;
65328;SDS011;51941;52.210;5.158;2024-03-22T01:49:21;34.30;;;9.93;;
65328;SDS011;51941;52.210;5.158;2024-03-22T01:51:49;32.33;;;10.65;;
65328;SDS011;51941;52.210;5.158;2024-03-22T01:54:16;23.45;;;8.57;;
65328;SDS011;51941;52.210;5.158;2024-03-22T01:56:42;25.10;;;9.95;;
65328;SDS011;51941;52.210;5.158;2024-03-22T01:59:09;28.00;;;10.25;;
65328;SDS011;51941;52.210;5.158;2024-03-22T02:01:36;33.55;;;11.02;;
65328;SDS011;51941;52.210;5.158;2024-03-22T02:04:03;29.88;;;10.52;;
65328;SDS011;51941;52.210;5.158;2024-03-22T02:06:29;28.88;;;10.95;;
65328;SDS011;51941;52.210;5.158;2024-03-22T02:08:56;28.60;;;10.23;;
65328;SDS011;51941;52.210;5.158;2024-03-22T02:11:22;32.20;;;11.77;;
65328;SDS011;51941;52.210;5.158;2024-03-22T02:13:49;33.88;;;10.48;;
65328;SDS011;51941;52.210;5.158;2024-03-22T02:16:15;28.08;;;11.10;;
65328;SDS011;51941;52.210;5.158;2024-03-22T02:18:43;29.92;;;10.80;;
65328;SDS011;51941;52.210;5.158;2024-03-22T02:21:09;25.23;;;11.00;;
65328;SDS011;51941;52.210;5.158;2024-03-22T02:23:41;27.25;;;11.20;;
65328;SDS011;51941;52.210;5.158;2024-03-22T02:26:07;28.73;;;11.20;;
65328;SDS011;51941;52.210;5.158;2024-03-22T02:28:35;30.17;;;11.65;;
65328;SDS011;51941;52.210;5.158;2024-03-22T02:31:01;34.17;;;11.48;;
65328;SDS011;51941;52.210;5.158;2024-03-22T02:33:28;38.95;;;11.68;;
65328;SDS011;51941;52.210;5.158;2024-03-22T02:35:54;30.80;;;10.88;;
65328;SDS011;51941;52.210;5.158;2024-03-22T02:38:21;34.05;;;10.27;;
65328;SDS011;51941;52.210;5.158;2024-03-22T02:40:49;27.42;;;10.27;;
65328;SDS011;51941;52.210;5.158;2024-03-22T02:43:18;32.50;;;11.50;;
65328;SDS011;51941;52.210;5.158;2024-03-22T02:45:44;27.10;;;10.27;;
65328;SDS011;51941;52.210;5.158;2024-03-22T02:48:12;32.80;;;10.38;;
65328;SDS011;51941;52.210;5.158;2024-03-22T02:50:38;27.10;;;10.35;;
65328;SDS011;51941;52.210;5.158;2024-03-22T02:53:05;25.75;;;9.30;;
65328;SDS011;51941;52.210;5.158;2024-03-22T02:55:35;28.85;;;10.10;;
65328;SDS011;51941;52.210;5.158;2024-03-22T02:58:04;26.70;;;9.57;;
65328;SDS011;51941;52.210;5.158;2024-03-22T03:00:31;27.85;;;10.30;;
65328;SDS011;51941;52.210;5.158;2024-03-22T03:02:58;31.10;;;10.82;;
65328;SDS011;51941;52.210;5.158;2024-03-22T03:05:24;29.33;;;9.60;;
65328;SDS011;51941;52.210;5.158;2024-03-22T03:07:51;28.70;;;9.57;;
65328;SDS011;51941;52.210;5.158;2024-03-22T03:10:17;26.15;;;9.27;;
65328;SDS011;51941;52.210;5.158;2024-03-22T03:12:44;26.00;;;10.10;;
65328;SDS011;51941;52.210;5.158;2024-03-22T03:15:11;31.25;;;10.55;;
65328;SDS011;51941;52.210;5.158;2024-03-22T03:17:38;33.63;;;10.32;;
65328;SDS011;51941;52.210;5.158;2024-03-22T03:20:04;33.53;;;10.13;;
65328;SDS011;51941;52.210;5.158;2024-03-22T03:25:01;27.85;;;9.75;;
65328;SDS011;51941;52.210;5.158;2024-03-22T03:27:29;27.55;;;9.73;;
65328;SDS011;51941;52.210;5.158;2024-03-22T03:29:55;28.05;;;9.45;;
65328;SDS011;51941;52.210;5.158;2024-03-22T03:32:23;31.52;;;9.95;;
65328;SDS011;51941;52.210;5.158;2024-03-22T03:34:50;23.75;;;7.88;;
65328;SDS011;51941;52.210;5.158;2024-03-22T03:37:16;24.35;;;9.45;;
65328;SDS011;51941;52.210;5.158;2024-03-22T03:39:42;23.77;;;8.90;;
65328;SDS011;51941;52.210;5.158;2024-03-22T03:42:09;26.65;;;9.27;;
65328;SDS011;51941;52.210;5.158;2024-03-22T03:44:35;26.15;;;9.10;;
65328;SDS011;51941;52.210;5.158;2024-03-22T03:47:02;24.88;;;9.38;;
65328;SDS011;51941;52.210;5.158;2024-03-22T03:49:29;24.60;;;8.57;;
65328;SDS011;51941;52.210;5.158;2024-03-22T03:51:56;26.02;;;9.30;;
65328;SDS011;51941;52.210;5.158;2024-03-22T03:54:22;28.67;;;9.90;;
65328;SDS011;51941;52.210;5.158;2024-03-22T03:56:49;24.42;;;9.27;;
65328;SDS011;51941;52.210;5.158;2024-03-22T03:59:15;28.80;;;9.10;;
65328;SDS011;51941;52.210;5.158;2024-03-22T04:01:41;28.15;;;9.63;;
65328;SDS011;51941;52.210;5.158;2024-03-22T04:04:07;28.15;;;10.40;;
65328;SDS011;51941;52.210;5.158;2024-03-22T04:06:35;29.15;;;10.18;;
65328;SDS011;51941;52.210;5.158;2024-03-22T04:09:01;28.73;;;10.05;;
65328;SDS011;51941;52.210;5.158;2024-03-22T04:11:28;26.88;;;8.50;;
65328;SDS011;51941;52.210;5.158;2024-03-22T04:13:54;23.67;;;8.32;;
65328;SDS011;51941;52.210;5.158;2024-03-22T04:16:21;21.63;;;8.63;;
65328;SDS011;51941;52.210;5.158;2024-03-22T04:18:46;23.77;;;9.45;;
65328;SDS011;51941;52.210;5.158;2024-03-22T04:21:13;26.00;;;8.57;;
65328;SDS011;51941;52.210;5.158;2024-03-22T04:23:40;25.73;;;9.50;;
65328;SDS011;51941;52.210;5.158;2024-03-22T04:26:07;22.40;;;7.35;;
65328;SDS011;51941;52.210;5.158;2024-03-22T04:28:33;22.25;;;8.13;;
65328;SDS011;51941;52.210;5.158;2024-03-22T04:31:00;23.15;;;8.45;;
65328;SDS011;51941;52.210;5.158;2024-03-22T04:33:27;19.95;;;7.20;;
65328;SDS011;51941;52.210;5.158;2024-03-22T04:35:54;21.08;;;7.30;;
65328;SDS011;51941;52.210;5.158;2024-03-22T04:38:21;20.75;;;6.50;;
65328;SDS011;51941;52.210;5.158;2024-03-22T04:40:49;21.23;;;6.90;;
65328;SDS011;51941;52.210;5.158;2024-03-22T04:43:17;19.70;;;6.95;;
65328;SDS011;51941;52.210;5.158;2024-03-22T04:45:44;22.80;;;7.03;;
65328;SDS011;51941;52.210;5.158;2024-03-22T04:48:12;18.33;;;7.07;;
65328;SDS011;51941;52.210;5.158;2024-03-22T04:50:39;21.38;;;7.22;;
65328;SDS011;51941;52.210;5.158;2024-03-22T04:53:06;19.23;;;7.30;;
65328;SDS011;51941;52.210;5.158;2024-03-22T04:55:31;20.73;;;7.00;;
65328;SDS011;51941;52.210;5.158;2024-03-22T04:58:00;24.52;;;7.20;;
65328;SDS011;51941;52.210;5.158;2024-03-22T05:00:26;21.48;;;7.15;;
65328;SDS011;51941;52.210;5.158;2024-03-22T05:02:53;17.00;;;6.80;;
65328;SDS011;51941;52.210;5.158;2024-03-22T05:05:18;27.17;;;6.70;;
65328;SDS011;51941;52.210;5.158;2024-03-22T05:07:45;19.67;;;6.20;;
65328;SDS011;51941;52.210;5.158;2024-03-22T05:10:11;21.08;;;7.30;;
65328;SDS011;51941;52.210;5.158;2024-03-22T05:12:38;16.23;;;5.72;;
65328;SDS011;51941;52.210;5.158;2024-03-22T05:15:06;19.70;;;6.35;;
65328;SDS011;51941;52.210;5.158;2024-03-22T05:17:33;27.35;;;7.00;;
65328;SDS011;51941;52.210;5.158;2024-03-22T05:19:59;20.83;;;7.28;;
65328;SDS011;51941;52.210;5.158;2024-03-22T05:22:26;17.83;;;6.15;;
65328;SDS011;51941;52.210;5.158;2024-03-22T05:24:53;19.90;;;6.53;;
65328;SDS011;51941;52.210;5.158;2024-03-22T05:27:20;17.77;;;6.50;;
65328;SDS011;51941;52.210;5.158;2024-03-22T05:29:45;16.90;;;6.57;;
65328;SDS011;51941;52.210;5.158;2024-03-22T05:32:17;17.15;;;6.43;;
65328;SDS011;51941;52.210;5.158;2024-03-22T05:34:43;21.65;;;5.97;;
65328;SDS011;51941;52.210;5.158;2024-03-22T05:37:10;21.35;;;6.10;;
65328;SDS011;51941;52.210;5.158;2024-03-22T05:39:36;13.80;;;6.15;;
65328;SDS011;51941;52.210;5.158;2024-03-22T05:42:03;18.55;;;5.78;;
65328;SDS011;51941;52.210;5.158;2024-03-22T05:44:29;20.48;;;5.80;;
65328;SDS011;51941;52.210;5.158;2024-03-22T05:46:56;18.08;;;6.18;;
65328;SDS011;51941;52.210;5.158;2024-03-22T05:49:23;16.83;;;5.63;;
65328;SDS011;51941;52.210;5.158;2024-03-22T05:51:50;17.67;;;6.90;;
65328;SDS011;51941;52.210;5.158;2024-03-22T05:54:16;20.25;;;6.03;;
65328;SDS011;51941;52.210;5.158;2024-03-22T05:56:42;17.48;;;5.22;;
65328;SDS011;51941;52.210;5.158;2024-03-22T05:59:09;14.93;;;5.53;;
65328;SDS011;51941;52.210;5.158;2024-03-22T06:01:35;19.10;;;5.93;;
65328;SDS011;51941;52.210;5.158;2024-03-22T06:04:03;21.70;;;5.90;;
65328;SDS011;51941;52.210;5.158;2024-03-22T06:06:30;17.80;;;5.80;;
65328;SDS011;51941;52.210;5.158;2024-03-22T06:08:58;16.00;;;5.30;;
65328;SDS011;51941;52.210;5.158;2024-03-22T06:11:25;18.00;;;5.35;;
65328;SDS011;51941;52.210;5.158;2024-03-22T06:13:52;17.50;;;5.60;;
65328;SDS011;51941;52.210;5.158;2024-03-22T06:16:20;16.85;;;5.43;;
65328;SDS011;51941;52.210;5.158;2024-03-22T06:18:45;14.95;;;5.00;;
65328;SDS011;51941;52.210;5.158;2024-03-22T06:21:13;13.50;;;4.43;;
65328;SDS011;51941;52.210;5.158;2024-03-22T06:23:41;16.10;;;5.25;;
65328;SDS011;51941;52.210;5.158;2024-03-22T06:26:07;14.23;;;5.13;;
65328;SDS011;51941;52.210;5.158;2024-03-22T06:28:33;14.98;;;5.28;;
65328;SDS011;51941;52.210;5.158;2024-03-22T06:31:01;14.57;;;5.10;;
65328;SDS011;51941;52.210;5.158;2024-03-22T06:33:28;15.88;;;5.30;;
65328;SDS011;51941;52.210;5.158;2024-03-22T06:35:55;18.55;;;5.45;;
65328;SDS011;51941;52.210;5.158;2024-03-22T06:38:20;16.02;;;5.10;;
65328;SDS011;51941;52.210;5.158;2024-03-22T06:40:50;18.83;;;4.97;;
65328;SDS011;51941;52.210;5.158;2024-03-22T06:43:16;21.52;;;4.82;;
65328;SDS011;51941;52.210;5.158;2024-03-22T06:45:42;13.73;;;4.75;;
65328;SDS011;51941;52.210;5.158;2024-03-22T06:48:08;11.75;;;4.50;;
65328;SDS011;51941;52.210;5.158;2024-03-22T06:50:35;16.73;;;4.50;;
65328;SDS011;51941;52.210;5.158;2024-03-22T06:53:01;16.60;;;5.07;;
65328;SDS011;51941;52.210;5.158;2024-03-22T06:55:28;18.80;;;5.63;;
65328;SDS011;51941;52.210;5.158;2024-03-22T06:57:55;17.58;;;5.00;;
65328;SDS011;51941;52.210;5.158;2024-03-22T07:00:21;16.55;;;5.50;;
65328;SDS011;51941;52.210;5.158;2024-03-22T07:02:48;24.08;;;6.63;;
65328;SDS011;51941;52.210;5.158;2024-03-22T07:05:14;18.55;;;5.97;;
65328;SDS011;51941;52.210;5.158;2024-03-22T07:07:40;20.55;;;5.97;;
65328;SDS011;51941;52.210;5.158;2024-03-22T07:10:07;16.05;;;5.85;;
65328;SDS011;51941;52.210;5.158;2024-03-22T07:12:34;16.45;;;5.68;;
65328;SDS011;51941;52.210;5.158;2024-03-22T07:15:06;21.08;;;5.78;;
65328;SDS011;51941;52.210;5.158;2024-03-22T07:17:32;17.23;;;5.47;;
65328;SDS011;51941;52.210;5.158;2024-03-22T07:19:59;16.88;;;5.15;;
65328;SDS011;51941;52.210;5.158;2024-03-22T07:22:25;16.33;;;5.28;;
65328;SDS011;51941;52.210;5.158;2024-03-22T07:24:53;17.35;;;5.88;;
65328;SDS011;51941;52.210;5.158;2024-03-22T07:27:20;16.20;;;5.57;;
65328;SDS011;51941;52.210;5.158;2024-03-22T07:29:47;18.20;;;5.53;;
65328;SDS011;51941;52.210;5.158;2024-03-22T07:32:14;25.42;;;6.90;;
65328;SDS011;51941;52.210;5.158;2024-03-22T07:34:41;15.25;;;5.55;;
65328;SDS011;51941;52.210;5.158;2024-03-22T07:37:07;14.43;;;5.95;;
65328;SDS011;51941;52.210;5.158;2024-03-22T07:39:33;16.08;;;4.47;;
65328;SDS011;51941;52.210;5.158;2024-03-22T07:42:00;20.65;;;5.40;;
65328;SDS011;51941;52.210;5.158;2024-03-22T07:44:28;21.27;;;5.05;;
65328;SDS011;51941;52.210;5.158;2024-03-22T07:46:54;20.05;;;6.70;;
65328;SDS011;51941;52.210;5.158;2024-03-22T07:49:25;22.55;;;5.10;;
65328;SDS011;51941;52.210;5.158;2024-03-22T07:51:50;18.73;;;5.00;;
65328;SDS011;51941;52.210;5.158;2024-03-22T07:54:18;17.10;;;5.35;;
65328;SDS011;51941;52.210;5.158;2024-03-22T07:56:44;19.55;;;5.45;;
65328;SDS011;51941;52.210;5.158;2024-03-22T07:59:10;16.23;;;5.35;;
65328;SDS011;51941;52.210;5.158;2024-03-22T08:01:36;20.73;;;5.63;;
65328;SDS011;51941;52.210;5.158;2024-03-22T08:04:03;15.50;;;4.80;;
65328;SDS011;51941;52.210;5.158;2024-03-22T08:06:31;14.85;;;4.68;;
65328;SDS011;51941;52.210;5.158;2024-03-22T08:08:58;18.13;;;5.38;;
65328;SDS011;51941;52.210;5.158;2024-03-22T08:11:24;16.55;;;4.25;;
65328;SDS011;51941;52.210;5.158;2024-03-22T08:13:50;17.98;;;5.30;;
65328;SDS011;51941;52.210;5.158;2024-03-22T08:16:16;19.10;;;5.75;;
65328;SDS011;51941;52.210;5.158;2024-03-22T08:18:44;14.38;;;4.47;;
65328;SDS011;51941;52.210;5.158;2024-03-22T08:21:10;16.55;;;4.93;;
65328;SDS011;51941;52.210;5.158;2024-03-22T08:23:38;14.77;;;4.55;;
65328;SDS011;51941;52.210;5.158;2024-03-22T08:26:04;17.50;;;5.20;;
65328;SDS011;51941;52.210;5.158;2024-03-22T08:28:32;11.32;;;4.75;;
65328;SDS011;51941;52.210;5.158;2024-03-22T08:30:58;17.65;;;4.45;;
65328;SDS011;51941;52.210;5.158;2024-03-22T08:33:25;12.00;;;4.60;;
65328;SDS011;51941;52.210;5.158;2024-03-22T08:35:50;17.25;;;5.95;;
65328;SDS011;51941;52.210;5.158;2024-03-22T08:38:17;16.85;;;4.88;;
65328;SDS011;51941;52.210;5.158;2024-03-22T08:40:44;17.92;;;4.55;;
65328;SDS011;51941;52.210;5.158;2024-03-22T08:43:11;14.50;;;4.65;;
65328;SDS011;51941;52.210;5.158;2024-03-22T08:45:37;14.35;;;5.07;;
65328;SDS011;51941;52.210;5.158;2024-03-22T08:48:04;16.98;;;4.72;;
65328;SDS011;51941;52.210;5.158;2024-03-22T08:50:31;10.88;;;4.00;;
65328;SDS011;51941;52.210;5.158;2024-03-22T08:52:57;13.75;;;4.15;;
65328;SDS011;51941;52.210;5.158;2024-03-22T08:55:23;14.93;;;4.03;;
65328;SDS011;51941;52.210;5.158;2024-03-22T08:57:51;12.82;;;4.70;;
65328;SDS011;51941;52.210;5.158;2024-03-22T09:00:18;12.80;;;4.90;;
65328;SDS011;51941;52.210;5.158;2024-03-22T09:02:45;17.42;;;5.22;;
65328;SDS011;51941;52.210;5.158;2024-03-22T09:05:11;16.85;;;4.95;;
65328;SDS011;51941;52.210;5.158;2024-03-22T09:07:37;14.25;;;4.30;;
65328;SDS011;51941;52.210;5.158;2024-03-22T09:10:04;13.68;;;4.80;;
65328;SDS011;51941;52.210;5.158;2024-03-22T09:12:31;16.33;;;4.57;;
65328;SDS011;51941;52.210;5.158;2024-03-22T09:14:58;12.52;;;3.92;;
65328;SDS011;51941;52.210;5.158;2024-03-22T09:17:27;14.13;;;4.03;;
65328;SDS011;51941;52.210;5.158;2024-03-22T09:19:52;9.73;;;4.35;;
65328;SDS011;51941;52.210;5.158;2024-03-22T09:22:19;15.15;;;4.30;;
65328;SDS011;51941;52.210;5.158;2024-03-22T09:24:45;13.20;;;5.18;;
65328;SDS011;51941;52.210;5.158;2024-03-22T09:27:12;12.80;;;4.75;;
65328;SDS011;51941;52.210;5.158;2024-03-22T09:29:37;14.98;;;4.65;;
65328;SDS011;51941;52.210;5.158;2024-03-22T09:32:06;11.00;;;3.25;;
65328;SDS011;51941;52.210;5.158;2024-03-22T09:34:32;9.25;;;3.75;;
65328;SDS011;51941;52.210;5.158;2024-03-22T09:36:59;13.15;;;4.28;;
65328;SDS011;51941;52.210;5.158;2024-03-22T09:39:24;16.63;;;4.78;;
65328;SDS011;51941;52.210;5.158;2024-03-22T09:41:53;9.35;;;3.60;;
65328;SDS011;51941;52.210;5.158;2024-03-22T09:44:22;10.13;;;4.40;;
65328;SDS011;51941;52.210;5.158;2024-03-22T09:46:50;9.77;;;4.10;;
65328;SDS011;51941;52.210;5.158;2024-03-22T09:49:18;10.27;;;4.22;;
65328;SDS011;51941;52.210;5.158;2024-03-22T09:51:45;11.20;;;4.72;;
65328;SDS011;51941;52.210;5.158;2024-03-22T09:54:14;13.07;;;4.20;;
65328;SDS011;51941;52.210;5.158;2024-03-22T09:56:41;9.07;;;4.10;;
65328;SDS011;51941;52.210;5.158;2024-03-22T09:59:07;12.68;;;4.05;;
65328;SDS011;51941;52.210;5.158;2024-03-22T10:01:35;9.77;;;3.42;;
65328;SDS011;51941;52.210;5.158;2024-03-22T10:04:02;8.50;;;3.78;;
65328;SDS011;51941;52.210;5.158;2024-03-22T10:06:30;12.55;;;4.38;;
65328;SDS011;51941;52.210;5.158;2024-03-22T10:08:57;10.35;;;4.32;;
65328;SDS011;51941;52.210;5.158;2024-03-22T10:11:25;12.20;;;3.53;;
65328;SDS011;51941;52.210;5.158;2024-03-22T10:13:51;7.53;;;3.20;;
65328;SDS011;51941;52.210;5.158;2024-03-22T10:16:20;13.05;;;3.90;;
65328;SDS011;51941;52.210;5.158;2024-03-22T10:18:46;10.65;;;3.75;;
65328;SDS011;51941;52.210;5.158;2024-03-22T10:21:16;11.07;;;4.03;;
65328;SDS011;51941;52.210;5.158;2024-03-22T10:23:44;9.43;;;3.97;;
65328;SDS011;51941;52.210;5.158;2024-03-22T10:26:13;16.77;;;4.15;;
65328;SDS011;51941;52.210;5.158;2024-03-22T10:28:44;8.90;;;3.65;;
65328;SDS011;51941;52.210;5.158;2024-03-22T10:31:11;9.70;;;3.15;;
65328;SDS011;51941;52.210;5.158;2024-03-22T10:33:37;10.85;;;3.28;;
65328;SDS011;51941;52.210;5.158;2024-03-22T10:36:05;11.00;;;3.80;;
65328;SDS011;51941;52.210;5.158;2024-03-22T10:38:32;10.02;;;3.97;;
65328;SDS011;51941;52.210;5.158;2024-03-22T10:41:01;14.50;;;3.85;;
65328;SDS011;51941;52.210;5.158;2024-03-22T10:43:28;7.95;;;3.40;;
65328;SDS011;51941;52.210;5.158;2024-03-22T10:45:55;8.25;;;3.38;;
65328;SDS011;51941;52.210;5.158;2024-03-22T10:48:25;10.93;;;3.50;;
65328;SDS011;51941;52.210;5.158;2024-03-22T10:50:58;12.48;;;3.63;;
65328;SDS011;51941;52.210;5.158;2024-03-22T10:53:27;11.25;;;3.40;;
65328;SDS011;51941;52.210;5.158;2024-03-22T10:55:57;7.75;;;3.55;;
65328;SDS011;51941;52.210;5.158;2024-03-22T10:58:26;9.73;;;3.50;;
65328;SDS011;51941;52.210;5.158;2024-03-22T11:00:53;11.68;;;4.20;;
65328;SDS011;51941;52.210;5.158;2024-03-22T11:03:21;7.85;;;3.17;;
65328;SDS011;51941;52.210;5.158;2024-03-22T11:05:49;10.90;;;3.17;;
65328;SDS011;51941;52.210;5.158;2024-03-22T11:08:23;11.15;;;3.03;;
65328;SDS011;51941;52.210;5.158;2024-03-22T11:10:50;8.48;;;2.88;;
65328;SDS011;51941;52.210;5.158;2024-03-22T11:13:16;11.05;;;3.95;;
65328;SDS011;51941;52.210;5.158;2024-03-22T11:15:45;8.10;;;3.10;;
65328;SDS011;51941;52.210;5.158;2024-03-22T11:18:12;7.57;;;2.65;;
65328;SDS011;51941;52.210;5.158;2024-03-22T11:20:40;8.70;;;3.13;;
65328;SDS011;51941;52.210;5.158;2024-03-22T11:23:07;9.07;;;3.20;;
65328;SDS011;51941;52.210;5.158;2024-03-22T11:25:35;8.48;;;3.03;;
65328;SDS011;51941;52.210;5.158;2024-03-22T11:28:01;8.25;;;3.08;;
65328;SDS011;51941;52.210;5.158;2024-03-22T11:30:28;7.07;;;2.60;;
65328;SDS011;51941;52.210;5.158;2024-03-22T11:32:56;7.88;;;2.88;;
65328;SDS011;51941;52.210;5.158;2024-03-22T11:35:23;7.72;;;3.15;;
65328;SDS011;51941;52.210;5.158;2024-03-22T11:37:49;9.82;;;2.97;;
65328;SDS011;51941;52.210;5.158;2024-03-22T11:40:17;6.80;;;2.30;;
65328;SDS011;51941;52.210;5.158;2024-03-22T11:42:44;8.30;;;2.95;;
65328;SDS011;51941;52.210;5.158;2024-03-22T11:45:13;6.45;;;2.40;;
65328;SDS011;51941;52.210;5.158;2024-03-22T11:47:40;7.90;;;2.78;;
65328;SDS011;51941;52.210;5.158;2024-03-22T11:50:09;8.23;;;2.70;;
65328;SDS011;51941;52.210;5.158;2024-03-22T11:52:39;7.90;;;3.03;;
65328;SDS011;51941;52.210;5.158;2024-03-22T11:55:07;6.72;;;2.58;;
65328;SDS011;51941;52.210;5.158;2024-03-22T11:57:33;7.20;;;2.67;;
65328;SDS011;51941;52.210;5.158;2024-03-22T12:00:00;9.50;;;3.38;;
65328;SDS011;51941;52.210;5.158;2024-03-22T12:02:37;8.63;;;3.75;;
65328;SDS011;51941;52.210;5.158;2024-03-22T12:05:05;9.25;;;3.25;;
65328;SDS011;51941;52.210;5.158;2024-03-22T12:07:33;9.35;;;3.45;;
65328;SDS011;51941;52.210;5.158;2024-03-22T12:10:00;13.55;;;4.90;;
65328;SDS011;51941;52.210;5.158;2024-03-22T12:12:26;14.25;;;4.70;;
65328;SDS011;51941;52.210;5.158;2024-03-22T12:14:53;8.32;;;3.15;;
65328;SDS011;51941;52.210;5.158;2024-03-22T12:17:19;8.48;;;3.65;;
65328;SDS011;51941;52.210;5.158;2024-03-22T12:19:46;9.70;;;4.30;;
65328;SDS011;51941;52.210;5.158;2024-03-22T12:22:12;10.85;;;4.45;;
65328;SDS011;51941;52.210;5.158;2024-03-22T12:24:40;10.75;;;4.05;;
65328;SDS011;51941;52.210;5.158;2024-03-22T12:27:07;11.35;;;4.28;;
65328;SDS011;51941;52.210;5.158;2024-03-22T12:29:34;8.27;;;3.13;;
65328;SDS011;51941;52.210;5.158;2024-03-22T12:32:03;13.73;;;4.53;;
65328;SDS011;51941;52.210;5.158;2024-03-22T12:34:30;12.52;;;3.90;;
65328;SDS011;51941;52.210;5.158;2024-03-22T12:36:57;11.35;;;3.33;;
65328;SDS011;51941;52.210;5.158;2024-03-22T12:39:24;12.07;;;3.97;;
65328;SDS011;51941;52.210;5.158;2024-03-22T12:41:51;7.75;;;3.33;;
65328;SDS011;51941;52.210;5.158;2024-03-22T12:44:19;10.43;;;3.55;;
65328;SDS011;51941;52.210;5.158;2024-03-22T12:46:45;8.88;;;3.80;;
65328;SDS011;51941;52.210;5.158;2024-03-22T12:49:12;11.63;;;3.58;;
65328;SDS011;51941;52.210;5.158;2024-03-22T12:51:38;13.15;;;4.40;;
65328;SDS011;51941;52.210;5.158;2024-03-22T12:54:05;14.57;;;3.80;;
65328;SDS011;51941;52.210;5.158;2024-03-22T12:56:30;12.02;;;4.55;;
65328;SDS011;51941;52.210;5.158;2024-03-22T12:58:59;10.73;;;3.83;;
65328;SDS011;51941;52.210;5.158;2024-03-22T13:01:25;14.50;;;3.75;;
65328;SDS011;51941;52.210;5.158;2024-03-22T13:03:52;9.60;;;4.07;;
65328;SDS011;51941;52.210;5.158;2024-03-22T13:06:18;12.43;;;3.65;;
65328;SDS011;51941;52.210;5.158;2024-03-22T13:08:44;11.77;;;4.80;;
65328;SDS011;51941;52.210;5.158;2024-03-22T13:11:10;13.45;;;4.60;;
65328;SDS011;51941;52.210;5.158;2024-03-22T13:13:38;11.15;;;4.53;;
65328;SDS011;51941;52.210;5.158;2024-03-22T13:16:05;15.70;;;3.78;;
65328;SDS011;51941;52.210;5.158;2024-03-22T13:18:34;15.57;;;5.00;;
65328;SDS011;51941;52.210;5.158;2024-03-22T13:21:00;18.40;;;4.43;;
65328;SDS011;51941;52.210;5.158;2024-03-22T13:23:28;14.55;;;4.95;;
65328;SDS011;51941;52.210;5.158;2024-03-22T13:25:53;14.73;;;3.90;;
65328;SDS011;51941;52.210;5.158;2024-03-22T13:28:21;15.50;;;4.72;;
65328;SDS011;51941;52.210;5.158;2024-03-22T13:30:47;17.55;;;4.88;;
65328;SDS011;51941;52.210;5.158;2024-03-22T13:33:16;12.38;;;4.22;;
65328;SDS011;51941;52.210;5.158;2024-03-22T13:35:44;12.23;;;4.38;;
65328;SDS011;51941;52.210;5.158;2024-03-22T13:38:11;12.70;;;4.30;;
65328;SDS011;51941;52.210;5.158;2024-03-22T13:40:39;10.00;;;4.13;;
65328;SDS011;51941;52.210;5.158;2024-03-22T13:43:06;11.70;;;4.35;;
65328;SDS011;51941;52.210;5.158;2024-03-22T13:45:32;10.30;;;3.95;;
65328;SDS011;51941;52.210;5.158;2024-03-22T13:47:59;12.68;;;4.05;;
65328;SDS011;51941;52.210;5.158;2024-03-22T13:50:29;11.48;;;4.35;;
65328;SDS011;51941;52.210;5.158;2024-03-22T13:52:56;12.48;;;3.40;;
65328;SDS011;51941;52.210;5.158;2024-03-22T13:55:21;13.07;;;4.40;;
65328;SDS011;51941;52.210;5.158;2024-03-22T13:57:48;11.40;;;3.55;;
65328;SDS011;51941;52.210;5.158;2024-03-22T14:00:14;11.98;;;3.65;;
65328;SDS011;51941;52.210;5.158;2024-03-22T14:02:42;13.05;;;2.88;;
65328;SDS011;51941;52.210;5.158;2024-03-22T14:05:10;8.57;;;3.38;;
65328;SDS011;51941;52.210;5.158;2024-03-22T14:07:38;14.30;;;4.30;;
65328;SDS011;51941;52.210;5.158;2024-03-22T14:10:05;17.25;;;3.70;;
65328;SDS011;51941;52.210;5.158;2024-03-22T14:12:33;15.15;;;3.88;;
65328;SDS011;51941;52.210;5.158;2024-03-22T14:14:59;10.27;;;3.67;;
65328;SDS011;51941;52.210;5.158;2024-03-22T14:17:26;11.77;;;3.60;;
65328;SDS011;51941;52.210;5.158;2024-03-22T14:19:52;11.57;;;2.90;;
65328;SDS011;51941;52.210;5.158;2024-03-22T14:22:19;12.23;;;3.83;;
65328;SDS011;51941;52.210;5.158;2024-03-22T14:24:47;10.20;;;3.53;;
65328;SDS011;51941;52.210;5.158;2024-03-22T14:27:13;10.55;;;3.30;;
65328;SDS011;51941;52.210;5.158;2024-03-22T14:29:39;10.43;;;3.35;;
65328;SDS011;51941;52.210;5.158;2024-03-22T14:32:06;12.65;;;3.88;;
65328;SDS011;51941;52.210;5.158;2024-03-22T14:34:33;9.05;;;2.85;;